Time;durP1;ratioP1;P1;durP2;ratioP2;P2;SDS_P1;SDS_P2;PMS_P1;PMS_P2;Temp;Humidity;BMP_temperature;BMP_pressure;BME280_temperature;BME280_humidity;BME280_pressure;Samples;Min_cycle;Max_cycle;Signal;HPM_P1;HPM_P2
2022/09/06 00:02:13;;;;;;;5.78;2.75;;;20.80;94.40;;;;;;5060036;28;20044;-71
2022/09/06 00:04:38;;;;;;;7.55;3.05;;;20.90;94.40;;;;;;5053600;28;20052;-72
2022/09/06 00:07:04;;;;;;;5.57;2.78;;;20.70;94.40;;;;;;5037774;28;20032;-72
2022/09/06 00:09:30;;;;;;;2.63;2.42;;;20.70;94.40;;;;;;5060044;28;20535;-71
2022/09/06 00:11:55;;;;;;;5.57;2.42;;;20.70;94.40;;;;;;5059453;28;20041;-71
2022/09/06 00:14:21;;;;;;;4.53;2.47;;;20.90;94.50;;;;;;5063500;28;20032;-71
2022/09/06 00:16:46;;;;;;;2.55;2.38;;;20.80;94.50;;;;;;5054306;28;20067;-69
2022/09/06 00:19:12;;;;;;;4.32;2.80;;;20.60;94.50;;;;;;5061025;28;20032;-70
2022/09/06 00:21:38;;;;;;;3.28;2.78;;;20.60;94.50;;;;;;5060663;28;20112;-72
2022/09/06 00:24:03;;;;;;;4.05;2.70;;;20.50;94.60;;;;;;5059934;28;20070;-71
2022/09/06 00:26:29;;;;;;;4.80;2.80;;;20.60;94.60;;;;;;5062003;28;20563;-71
2022/09/06 00:28:54;;;;;;;3.33;2.63;;;20.70;94.60;;;;;;5062791;28;20047;-71
2022/09/06 00:31:22;;;;;;;3.72;2.45;;;20.50;94.70;;;;;;5058861;28;20073;-72
2022/09/06 00:33:49;;;;;;;4.22;2.53;;;20.50;94.80;;;;;;5059111;28;20435;-71
2022/09/06 00:36:15;;;;;;;5.82;2.97;;;20.50;94.80;;;;;;5062402;28;20049;-73
2022/09/06 00:38:41;;;;;;;6.10;2.75;;;20.50;94.90;;;;;;5060091;28;20056;-70
2022/09/06 00:41:09;;;;;;;5.43;2.67;;;20.50;95.00;;;;;;5056032;28;20112;-71
2022/09/06 00:43:35;;;;;;;3.42;2.45;;;20.40;94.90;;;;;;5057524;28;20433;-70
2022/09/06 00:46:03;;;;;;;3.17;2.60;;;20.40;95.00;;;;;;5056004;28;20082;-71
2022/09/06 00:48:28;;;;;;;5.75;2.70;;;20.40;95.00;;;;;;5062932;28;20052;-72
2022/09/06 00:50:59;;;;;;;5.25;2.45;;;20.40;95.00;;;;;;5062108;28;20550;-70
2022/09/06 00:53:26;;;;;;;10.75;2.63;;;20.30;95.00;;;;;;5055420;28;20037;-70
2022/09/06 00:55:52;;;;;;;4.78;2.63;;;20.30;95.10;;;;;;5057708;28;20032;-70
2022/09/06 00:58:18;;;;;;;4.30;2.33;;;20.40;95.20;;;;;;5061949;28;20060;-71
2022/09/06 01:00:44;;;;;;;4.20;2.58;;;20.40;95.30;;;;;;5058789;28;20051;-70
2022/09/06 01:03:11;;;;;;;5.55;2.80;;;20.30;95.20;;;;;;5056107;28;20040;-70
2022/09/06 01:06:15;;;;;;;3.03;2.80;;;20.30;95.30;;;;;;5059271;28;20049;-71
2022/09/06 01:09:03;;;;;;;2.85;2.63;;;20.30;95.30;;;;;;5056448;28;20485;-70
2022/09/06 01:11:46;;;;;;;5.35;2.92;;;20.30;95.60;;;;;;5073397;28;20488;-72
2022/09/06 01:14:48;;;;;;;4.75;3.15;;;20.20;95.40;;;;;;5077271;28;20043;-69
2022/09/06 01:17:32;;;;;;;4.75;2.90;;;20.20;95.50;;;;;;5074647;28;21041;-71
2022/09/06 01:20:35;;;;;;;2.35;2.08;;;20.20;95.50;;;;;;5054122;28;20048;-70
2022/09/06 01:23:50;;;;;;;8.23;2.63;;;20.20;95.60;;;;;;5063124;28;20423;-70
2022/09/06 01:26:30;;;;;;;3.75;3.08;;;20.20;95.60;;;;;;5062920;28;20048;-71
2022/09/06 01:28:56;;;;;;;5.97;2.50;;;20.10;95.70;;;;;;5042880;28;20070;-70
2022/09/06 01:31:36;;;;;;;4.78;2.63;;;20.20;95.70;;;;;;5070983;28;20048;-70
2022/09/06 01:34:05;;;;;;;2.90;2.60;;;20.10;95.70;;;;;;5061262;28;20480;-69
2022/09/06 01:36:38;;;;;;;2.88;2.65;;;20.20;95.80;;;;;;5063733;28;20374;-69
2022/09/06 01:39:04;;;;;;;4.83;2.93;;;20.10;95.80;;;;;;5059074;28;20044;-70
2022/09/06 01:41:31;;;;;;;5.32;2.40;;;20.00;95.80;;;;;;5067104;28;20774;-70
2022/09/06 01:43:57;;;;;;;3.58;3.28;;;20.30;95.90;;;;;;5064817;28;20071;-69
2022/09/06 01:46:38;;;;;;;2.67;2.42;;;20.70;96.00;;;;;;5068544;28;20081;-70
2022/09/06 01:49:43;;;;;;;5.25;3.00;;;20.00;95.80;;;;;;5059462;28;20052;-70
2022/09/06 01:52:17;;;;;;;5.93;3.00;;;20.00;95.80;;;;;;5055458;28;20401;-70
2022/09/06 01:55:15;;;;;;;3.50;2.83;;;19.90;95.90;;;;;;5067869;28;20115;-71
2022/09/06 01:58:37;;;;;;;2.88;2.67;;;19.90;96.10;;;;;;5063099;28;20067;-71
2022/09/06 02:01:03;;;;;;;3.50;3.20;;;19.80;96.10;;;;;;5013224;28;20359;-70
2022/09/06 02:03:43;;;;;;;3.83;2.88;;;19.80;96.20;;;;;;5027832;28;20087;-70
2022/09/06 02:06:15;;;;;;;5.30;2.88;;;19.70;96.20;;;;;;5056007;28;20496;-71
2022/09/06 02:08:46;;;;;;;6.97;3.15;;;19.70;96.30;;;;;;5065349;28;20044;-71
2022/09/06 02:11:14;;;;;;;9.07;3.15;;;19.70;96.40;;;;;;5064497;28;20120;-71
2022/09/06 02:13:48;;;;;;;5.72;2.95;;;19.70;96.30;;;;;;5069490;28;21374;-71
2022/09/06 02:16:16;;;;;;;;;;;19.70;96.30;;;;;;5066139;28;20045;-71
2022/09/06 02:18:46;;;;;;;4.03;2.53;;;20.20;96.40;;;;;;5065813;28;20264;-71
2022/09/06 02:21:16;;;;;;;4.35;2.83;;;20.10;96.30;;;;;;5061674;28;20040;-71
2022/09/06 02:23:43;;;;;;;2.88;2.67;;;19.80;96.20;;;;;;5062982;28;20044;-71
2022/09/06 02:26:27;;;;;;;3.42;3.13;;;19.80;96.20;;;;;;5064875;28;20044;-70
2022/09/06 02:28:54;;;;;;;4.22;2.50;;;19.80;96.30;;;;;;5065470;28;20482;-71
2022/09/06 02:31:28;;;;;;;5.43;3.00;;;19.80;96.20;;;;;;5064748;28;20132;-72
2022/09/06 02:33:54;;;;;;;8.43;3.40;;;20.00;96.40;;;;;;5048585;28;20043;-70
2022/09/06 02:36:21;;;;;;;6.88;3.10;;;19.70;96.40;;;;;;5062966;28;20040;-70
2022/09/06 02:38:47;;;;;;;7.97;3.10;;;19.70;96.40;;;;;;5061967;28;20445;-71
2022/09/06 02:41:17;;;;;;;5.13;3.03;;;19.70;96.50;;;;;;5062361;28;20036;-72
2022/09/06 02:43:43;;;;;;;4.80;3.30;;;19.60;96.60;;;;;;5063404;28;20052;-71
2022/09/06 02:46:09;;;;;;;7.95;2.75;;;19.50;96.70;;;;;;5065860;28;20124;-71
2022/09/06 02:48:34;;;;;;;6.72;3.65;;;19.50;96.80;;;;;;5065774;28;20032;-71
2022/09/06 02:51:05;;;;;;;3.90;3.40;;;19.30;96.80;;;;;;5064910;28;20098;-70
2022/09/06 02:53:31;;;;;;;10.55;3.50;;;19.30;96.90;;;;;;5061570;28;20055;-70
2022/09/06 02:55:57;;;;;;;4.72;3.50;;;19.30;97.00;;;;;;5064954;28;20494;-71
2022/09/06 02:58:23;;;;;;;4.55;3.30;;;19.30;97.00;;;;;;5063568;28;20039;-70
2022/09/06 03:00:50;;;;;;;5.43;3.78;;;19.20;96.90;;;;;;5062931;28;20373;-70
2022/09/06 03:03:16;;;;;;;4.47;3.35;;;19.20;97.00;;;;;;5063475;28;21258;-70
2022/09/06 03:05:45;;;;;;;7.15;3.28;;;19.20;97.20;;;;;;5066284;28;20028;-71
2022/09/06 03:08:10;;;;;;;3.90;3.40;;;19.20;97.00;;;;;;5062581;28;20120;-71
2022/09/06 03:10:36;;;;;;;8.85;3.42;;;19.20;97.00;;;;;;5062985;28;20135;-71
2022/09/06 03:13:02;;;;;;;5.03;2.88;;;19.10;97.00;;;;;;5064337;28;20048;-71
2022/09/06 03:15:28;;;;;;;6.80;3.30;;;19.10;97.00;;;;;;5065240;28;20040;-70
2022/09/06 03:17:58;;;;;;;5.05;3.55;;;19.20;97.00;;;;;;5061715;28;20033;-71
2022/09/06 03:20:24;;;;;;;7.47;3.53;;;19.10;97.00;;;;;;5062550;28;20036;-71
2022/09/06 03:22:50;;;;;;;3.78;3.17;;;19.00;97.00;;;;;;5065218;28;20097;-70
2022/09/06 03:25:16;;;;;;;3.65;3.30;;;19.00;97.00;;;;;;5062898;28;20438;-70
2022/09/06 03:27:42;;;;;;;7.75;3.42;;;19.00;97.00;;;;;;5062251;28;20174;-71
2022/09/06 03:30:08;;;;;;;6.45;3.63;;;18.90;97.00;;;;;;5062981;28;20056;-71
2022/09/06 03:32:34;;;;;;;5.68;3.42;;;19.00;97.00;;;;;;5065305;28;20044;-70
2022/09/06 03:35:00;;;;;;;7.25;3.17;;;19.00;97.10;;;;;;5063329;28;20105;-70
2022/09/06 03:37:25;;;;;;;10.75;3.50;;;19.40;97.20;;;;;;5067509;28;20119;-70
2022/09/06 03:39:51;;;;;;;4.88;3.53;;;18.90;97.10;;;;;;5060060;28;20043;-70
2022/09/06 03:42:17;;;;;;;6.13;3.75;;;19.20;97.20;;;;;;5062622;28;20068;-71
2022/09/06 03:44:42;;;;;;;6.20;3.88;;;18.90;97.10;;;;;;5065787;28;20041;-70
2022/09/06 03:47:08;;;;;;;4.55;4.15;;;18.90;97.30;;;;;;5062792;28;20538;-71
2022/09/06 03:49:33;;;;;;;6.32;4.43;;;19.70;97.30;;;;;;5064806;28;20036;-70
2022/09/06 03:51:59;;;;;;;5.50;3.97;;;19.00;97.20;;;;;;5063056;28;20045;-72
2022/09/06 03:54:27;;;;;;;5.80;3.80;;;18.90;97.10;;;;;;5061827;28;20668;-70
2022/09/06 03:56:52;;;;;;;4.45;4.03;;;18.90;97.10;;;;;;5063622;28;20045;-71
2022/09/06 03:59:18;;;;;;;5.70;4.03;;;18.90;97.20;;;;;;5061391;28;20082;-71
2022/09/06 04:01:44;;;;;;;6.85;3.25;;;18.90;97.20;;;;;;5061452;28;20484;-70
2022/09/06 04:04:09;;;;;;;7.63;3.90;;;19.30;97.30;;;;;;5060781;28;20043;-71
2022/09/06 04:06:35;;;;;;;4.60;3.45;;;18.90;97.20;;;;;;5065642;28;20450;-70
2022/09/06 04:09:00;;;;;;;4.60;3.70;;;19.30;97.30;;;;;;5060730;28;20119;-71
2022/09/06 04:11:26;;;;;;;6.85;4.50;;;18.90;97.30;;;;;;5063014;28;20072;-70
2022/09/06 04:13:52;;;;;;;8.02;3.90;;;18.80;97.30;;;;;;5063406;28;20453;-72
2022/09/06 04:16:17;;;;;;;4.05;3.42;;;19.10;97.40;;;;;;5065016;28;20036;-70
2022/09/06 04:18:43;;;;;;;4.22;3.05;;;18.80;97.40;;;;;;5056714;28;20110;-69
2022/09/06 04:21:09;;;;;;;5.93;4.05;;;19.00;97.40;;;;;;5062190;28;20064;-71
2022/09/06 04:23:34;;;;;;;3.80;3.50;;;19.50;97.50;;;;;;5063834;28;20123;-71
2022/09/06 04:26:00;;;;;;;4.00;3.60;;;18.90;97.30;;;;;;5064856;28;20053;-71
2022/09/06 04:28:26;;;;;;;4.40;3.42;;;19.00;97.50;;;;;;5063707;28;20116;-70
2022/09/06 04:31:03;;;;;;;6.20;3.70;;;18.90;97.60;;;;;;5058700;28;20494;-70
2022/09/06 04:33:29;;;;;;;7.50;4.13;;;18.90;97.80;;;;;;5059320;28;20084;-70
2022/09/06 04:35:57;;;;;;;7.30;3.40;;;19.30;98.00;;;;;;5056013;28;20046;-69
2022/09/06 04:38:28;;;;;;;7.25;4.32;;;18.90;98.00;;;;;;5066823;28;20107;-70
2022/09/06 04:40:54;;;;;;;7.85;4.30;;;18.90;98.20;;;;;;5065574;28;20127;-69
2022/09/06 04:43:21;;;;;;;7.32;4.38;;;18.90;98.40;;;;;;5059086;28;20048;-70
2022/09/06 04:45:46;;;;;;;4.43;4.13;;;18.70;98.60;;;;;;5066711;28;20079;-70
2022/09/06 04:48:15;;;;;;;5.95;4.20;;;19.00;98.90;;;;;;5062688;28;20099;-70
2022/09/06 04:50:41;;;;;;;4.13;3.83;;;19.20;99.10;;;;;;5061455;28;20045;-70
2022/09/06 04:53:07;;;;;;;8.73;4.78;;;18.80;99.20;;;;;;5055066;28;20071;-70
2022/09/06 04:55:33;;;;;;;4.75;4.35;;;18.90;99.60;;;;;;5055420;28;20052;-70
2022/09/06 04:58:02;;;;;;;5.75;4.20;;;19.00;99.90;;;;;;5053847;28;20041;-69
2022/09/06 05:00:30;;;;;;;5.20;4.68;;;18.90;99.90;;;;;;5053988;28;20091;-70
2022/09/06 05:02:56;;;;;;;5.07;4.10;;;18.80;99.90;;;;;;5059319;28;20037;-70
2022/09/06 05:05:22;;;;;;;7.35;4.13;;;18.80;99.90;;;;;;5058093;28;20350;-71
2022/09/06 05:07:51;;;;;;;4.63;4.22;;;18.90;99.90;;;;;;5054627;28;20558;-69
2022/09/06 05:10:16;;;;;;;5.25;4.20;;;18.90;99.90;;;;;;5052537;28;20047;-69
2022/09/06 05:12:42;;;;;;;5.60;5.20;;;18.90;99.90;;;;;;5057341;28;20036;-75
2022/09/06 05:15:08;;;;;;;9.77;8.80;;;19.60;99.90;;;;;;5054742;28;20137;-67
2022/09/06 05:17:34;;;;;;;5.80;5.30;;;18.90;99.90;;;;;;4357278;28;10000707;-67
2022/09/06 05:19:59;;;;;;;5.75;5.30;;;18.90;99.90;;;;;;5061587;28;20048;-70
2022/09/06 05:22:25;;;;;;;5.13;4.72;;;18.80;99.90;;;;;;5063825;28;20159;-69
2022/09/06 05:24:51;;;;;;;6.40;4.80;;;18.70;99.90;;;;;;5061072;28;20049;-73
2022/09/06 05:27:17;;;;;;;5.78;5.28;;;18.70;99.90;;;;;;5062552;28;20052;-76
2022/09/06 05:29:42;;;;;;;9.52;5.30;;;18.70;99.90;;;;;;5062401;28;20373;-71
2022/09/06 05:32:08;;;;;;;5.85;5.32;;;18.90;99.90;;;;;;5063327;28;20673;-73
2022/09/06 05:34:33;;;;;;;6.10;5.32;;;18.60;99.90;;;;;;5065262;28;20056;-72
2022/09/06 05:36:59;;;;;;;6.45;5.55;;;18.60;99.90;;;;;;5059882;28;20048;-75
2022/09/06 05:39:25;;;;;;;6.32;5.43;;;18.50;99.90;;;;;;5060828;28;20039;-76
2022/09/06 05:41:50;;;;;;;5.63;5.13;;;18.50;99.90;;;;;;5063182;28;20044;-75
2022/09/06 05:44:16;;;;;;;5.38;4.88;;;18.50;99.90;;;;;;5062743;28;20108;-76
2022/09/06 05:46:44;;;;;;;9.40;4.93;;;18.70;99.90;;;;;;5059780;28;20135;-71
2022/09/06 05:49:10;;;;;;;6.78;5.38;;;18.50;99.90;;;;;;5058214;28;20481;-82
2022/09/06 05:51:36;;;;;;;6.68;6.07;;;18.50;99.90;;;;;;5063347;28;20364;-78
2022/09/06 05:54:01;;;;;;;7.65;6.22;;;18.70;99.90;;;;;;5061940;28;20071;-78
2022/09/06 05:56:27;;;;;;;6.80;5.78;;;18.50;99.90;;;;;;5069938;28;20053;-73
2022/09/06 05:58:53;;;;;;;7.15;6.38;;;18.40;99.90;;;;;;5071511;28;20063;-76
2022/09/06 06:01:18;;;;;;;6.72;6.20;;;18.10;99.90;;;;;;5066081;28;20049;-71
2022/09/06 06:03:57;;;;;;;7.32;5.63;;;18.30;99.90;;;;;;5065687;28;20079;-70
2022/09/06 06:06:24;;;;;;;7.95;6.38;;;18.30;99.90;;;;;;5068452;28;20041;-70
2022/09/06 06:08:49;;;;;;;6.22;5.65;;;18.30;99.90;;;;;;5064273;28;20044;-74
2022/09/06 06:11:16;;;;;;;5.70;5.30;;;18.30;99.90;;;;;;5068054;28;20032;-73
2022/09/06 06:13:42;;;;;;;10.52;6.57;;;18.30;99.90;;;;;;5070430;28;20043;-72
2022/09/06 06:16:12;;;;;;;12.57;6.72;;;18.40;99.90;;;;;;5063087;28;20040;-72
2022/09/06 06:18:38;;;;;;;10.60;7.07;;;18.40;99.90;;;;;;5068633;28;20154;-73
2022/09/06 06:21:14;;;;;;;7.00;6.40;;;18.30;99.90;;;;;;5069043;28;20139;-74
2022/09/06 06:23:43;;;;;;;7.25;6.57;;;18.40;99.90;;;;;;5066046;28;20047;-74
2022/09/06 06:26:10;;;;;;;7.28;6.57;;;18.40;99.90;;;;;;5069295;28;20032;-70
2022/09/06 06:28:36;;;;;;;6.97;6.38;;;18.40;99.90;;;;;;5064886;28;20044;-78
2022/09/06 06:31:06;;;;;;;7.30;6.70;;;18.40;99.90;;;;;;5067636;28;20442;-74
2022/09/06 06:33:32;;;;;;;7.22;6.53;;;18.30;99.90;;;;;;5072390;28;20055;-77
2022/09/06 06:36:17;;;;;;;7.93;7.03;;;18.40;99.90;;;;;;5070914;28;20044;-77
2022/09/06 06:38:44;;;;;;;7.22;6.57;;;18.40;99.90;;;;;;5072330;28;20540;-72
2022/09/06 06:41:15;;;;;;;8.20;7.35;;;18.30;99.90;;;;;;5066427;28;20053;-73
2022/09/06 06:43:40;;;;;;;7.85;6.95;;;18.30;99.90;;;;;;5068816;28;20451;-72
2022/09/06 06:46:15;;;;;;;7.68;6.82;;;18.30;99.90;;;;;;5045151;28;20127;-73
2022/09/06 06:48:42;;;;;;;;;;;18.40;99.90;;;;;;5061893;28;20531;-70
2022/09/06 06:51:12;;;;;;;13.02;7.47;;;18.30;99.90;;;;;;5067638;28;20065;-69
2022/09/06 06:53:37;;;;;;;7.25;6.43;;;18.40;99.90;;;;;;5065649;28;20051;-70
2022/09/06 06:56:16;;;;;;;7.72;6.97;;;18.40;99.90;;;;;;5063363;28;20044;-69
2022/09/06 06:58:43;;;;;;;11.10;7.57;;;18.40;99.90;;;;;;5063706;28;20131;-68
2022/09/06 07:01:09;;;;;;;7.68;7.03;;;18.20;99.90;;;;;;5059667;28;20040;-69
2022/09/06 07:03:35;;;;;;;9.23;6.82;;;18.30;99.90;;;;;;5055925;28;20114;-69
2022/09/06 07:06:04;;;;;;;9.90;7.50;;;18.40;99.90;;;;;;5066466;28;20055;-69
2022/09/06 07:08:30;;;;;;;7.95;6.85;;;18.40;99.90;;;;;;5068382;28;20079;-70
2022/09/06 07:10:55;;;;;;;8.48;7.68;;;18.40;99.90;;;;;;5062701;28;20138;-69
2022/09/06 07:13:21;;;;;;;12.27;8.13;;;18.60;99.90;;;;;;5065636;28;20032;-70
2022/09/06 07:15:46;;;;;;;7.85;7.10;;;18.40;99.90;;;;;;5069172;28;20079;-69
2022/09/06 07:18:15;;;;;;;7.90;7.18;;;18.80;99.90;;;;;;5059011;28;20084;-69
2022/09/06 07:20:40;;;;;;;8.20;7.40;;;18.40;99.90;;;;;;5058331;28;20097;-71
2022/09/06 07:23:06;;;;;;;8.80;8.07;;;18.40;99.90;;;;;;5063819;28;20037;-70
2022/09/06 07:25:32;;;;;;;7.60;6.93;;;18.50;99.90;;;;;;5060599;28;20052;-70
2022/09/06 07:28:05;;;;;;;9.55;7.65;;;18.50;99.90;;;;;;5065956;28;20397;-69
2022/09/06 07:30:36;;;;;;;8.55;7.50;;;18.50;99.90;;;;;;5063209;28;20055;-73
2022/09/06 07:33:04;;;;;;;10.48;7.50;;;18.60;99.90;;;;;;5069354;28;20064;-73
2022/09/06 07:35:30;;;;;;;11.05;9.02;;;18.60;99.90;;;;;;5069380;28;20082;-72
2022/09/06 07:37:58;;;;;;;9.43;8.35;;;18.60;99.90;;;;;;5068005;28;20032;-72
2022/09/06 07:40:25;;;;;;;9.32;8.05;;;18.70;99.90;;;;;;5067578;28;20040;-69
2022/09/06 07:42:52;;;;;;;9.65;7.68;;;18.80;99.90;;;;;;5066103;28;20040;-69
2022/09/06 07:45:17;;;;;;;8.90;8.02;;;19.00;99.90;;;;;;5068720;28;20037;-69
2022/09/06 07:47:43;;;;;;;10.23;7.50;;;18.90;99.90;;;;;;5068967;28;20040;-69
2022/09/06 07:50:09;;;;;;;8.98;8.07;;;18.90;99.90;;;;;;5069158;28;20040;-69
2022/09/06 07:52:34;;;;;;;10.38;8.80;;;19.00;99.90;;;;;;5068403;28;20125;-68
2022/09/06 07:55:00;;;;;;;11.15;8.05;;;19.00;99.90;;;;;;5067718;28;20056;-71
2022/09/06 07:57:26;;;;;;;8.73;8.00;;;19.20;99.90;;;;;;5067182;28;20036;-72
2022/09/06 07:59:51;;;;;;;9.10;8.15;;;19.20;99.90;;;;;;5064606;28;20044;-68
2022/09/06 08:02:17;;;;;;;14.82;9.00;;;19.20;99.90;;;;;;5067649;28;20451;-70
2022/09/06 08:04:43;;;;;;;8.52;7.80;;;19.20;99.90;;;;;;5067058;28;20133;-73
2022/09/06 08:07:09;;;;;;;14.95;7.82;;;19.30;99.90;;;;;;5067551;28;20036;-72
2022/09/06 08:09:35;;;;;;;9.95;8.93;;;19.30;99.90;;;;;;5068848;28;20359;-71
2022/09/06 08:12:06;;;;;;;10.55;8.05;;;19.40;99.90;;;;;;5067136;28;20424;-70
2022/09/06 08:14:32;;;;;;;8.15;7.55;;;19.40;99.90;;;;;;5068077;28;20049;-70
2022/09/06 08:16:58;;;;;;;9.43;7.50;;;19.50;99.90;;;;;;5063768;28;20061;-70
2022/09/06 08:19:24;;;;;;;8.63;7.82;;;19.60;99.90;;;;;;5067523;28;20439;-71
2022/09/06 08:21:52;;;;;;;8.55;7.75;;;19.60;99.90;;;;;;5068355;28;20041;-70
2022/09/06 08:24:18;;;;;;;8.73;7.93;;;19.60;99.90;;;;;;5068410;28;20072;-69
2022/09/06 08:26:43;;;;;;;8.77;7.95;;;19.80;99.90;;;;;;5066880;28;20491;-73
2022/09/06 08:29:10;;;;;;;9.65;8.32;;;20.00;99.90;;;;;;5068169;28;20504;-71
2022/09/06 08:31:39;;;;;;;9.07;8.30;;;20.00;99.90;;;;;;5068129;28;20466;-71
2022/09/06 08:34:06;;;;;;;9.23;8.15;;;20.10;99.90;;;;;;5068050;28;20044;-72
2022/09/06 08:36:32;;;;;;;8.57;7.78;;;20.10;99.90;;;;;;5063971;28;20037;-72
2022/09/06 08:39:03;;;;;;;9.80;8.80;;;20.30;99.90;;;;;;5067815;28;20196;-72
2022/09/06 08:41:54;;;;;;;8.88;8.18;;;20.30;99.90;;;;;;5067839;28;20048;-73
2022/09/06 08:44:22;;;;;;;10.00;8.88;;;20.40;99.90;;;;;;5067280;28;20095;-74
2022/09/06 08:46:56;;;;;;;9.13;8.30;;;20.80;99.90;;;;;;5064604;28;20041;-72
2022/09/06 08:49:24;;;;;;;9.20;8.40;;;20.50;99.90;;;;;;5066439;28;20047;-74
2022/09/06 08:52:10;;;;;;;13.00;8.75;;;20.50;99.90;;;;;;5068342;28;20040;-73
2022/09/06 08:54:42;;;;;;;9.48;8.68;;;20.60;99.90;;;;;;5061203;28;20037;-73
2022/09/06 08:57:33;;;;;;;9.63;8.82;;;20.70;99.90;;;;;;5067923;28;20051;-69
2022/09/06 09:00:09;;;;;;;11.02;8.80;;;21.00;99.90;;;;;;5054721;28;20055;-69
2022/09/06 09:03:04;;;;;;;10.05;9.13;;;20.90;99.90;;;;;;5066810;28;20033;-70
2022/09/06 09:05:33;;;;;;;10.43;8.32;;;20.90;99.90;;;;;;5064527;28;20048;-72
2022/09/06 09:08:12;;;;;;;9.77;8.32;;;21.00;99.90;;;;;;5067242;28;20141;-71
2022/09/06 09:10:45;;;;;;;9.75;8.77;;;20.90;99.90;;;;;;5061861;28;20110;-70
2022/09/06 09:13:49;;;;;;;10.30;8.95;;;21.00;99.90;;;;;;5067085;28;20044;-71
2022/09/06 09:16:16;;;;;;;12.00;9.07;;;21.00;99.90;;;;;;5054585;28;20083;-69
2022/09/06 09:18:45;;;;;;;9.75;8.90;;;21.00;99.90;;;;;;5067897;28;20079;-70
2022/09/06 09:21:16;;;;;;;12.70;9.00;;;21.00;99.90;;;;;;5067969;28;20072;-70
2022/09/06 09:23:42;;;;;;;10.57;9.63;;;21.10;99.90;;;;;;5058769;28;20052;-70
2022/09/06 09:26:14;;;;;;;9.90;9.00;;;21.20;99.90;;;;;;5068105;28;20102;-72
2022/09/06 09:29:10;;;;;;;11.60;8.13;;;21.30;99.90;;;;;;5060023;28;20044;-73
2022/09/06 09:31:41;;;;;;;11.15;8.18;;;21.40;99.90;;;;;;5068048;28;20045;-73
2022/09/06 09:34:12;;;;;;;14.27;8.45;;;21.50;99.90;;;;;;5066368;28;20087;-72
2022/09/06 09:36:38;;;;;;;9.18;8.27;;;21.60;99.90;;;;;;5067303;28;20032;-69
2022/09/06 09:39:13;;;;;;;10.15;8.10;;;21.60;99.90;;;;;;5067886;28;20068;-68
2022/09/06 09:41:42;;;;;;;7.53;6.72;;;21.80;99.90;;;;;;5065581;28;20097;-70
2022/09/06 09:44:17;;;;;;;8.30;7.28;;;21.80;99.90;;;;;;5070714;28;20079;-70
2022/09/06 09:46:43;;;;;;;8.45;6.70;;;22.00;99.90;;;;;;5069579;28;20052;-70
2022/09/06 09:49:13;;;;;;;7.10;6.40;;;22.00;99.90;;;;;;5071080;28;20037;-69
2022/09/06 09:52:02;;;;;;;7.75;6.50;;;22.00;99.90;;;;;;5070701;28;20552;-70
2022/09/06 09:54:35;;;;;;;8.00;7.20;;;22.00;99.90;;;;;;5070972;28;20539;-69
2022/09/06 09:57:05;;;;;;;9.63;6.93;;;22.20;99.90;;;;;;5065261;28;20049;-71
2022/09/06 09:59:45;;;;;;;11.10;6.78;;;22.30;99.90;;;;;;5065551;28;20057;-70
2022/09/06 10:02:21;;;;;;;7.03;6.32;;;22.40;99.90;;;;;;5071101;28;20048;-70
2022/09/06 10:05:16;;;;;;;8.57;5.80;;;22.50;99.90;;;;;;5063356;28;20047;-71
2022/09/06 10:07:48;;;;;;;8.98;5.28;;;22.70;99.90;;;;;;5064868;28;20538;-69
2022/09/06 10:10:21;;;;;;;9.25;5.45;;;22.80;99.90;;;;;;5068552;28;20452;-70
2022/09/06 10:12:47;;;;;;;6.03;4.65;;;23.00;99.90;;;;;;5068826;28;20052;-69
2022/09/06 10:15:37;;;;;;;7.90;5.20;;;23.10;99.90;;;;;;5071559;28;20064;-72
2022/09/06 10:18:03;;;;;;;7.57;4.80;;;23.20;99.90;;;;;;5069852;28;20040;-70
2022/09/06 10:21:15;;;;;;;5.70;5.03;;;23.30;99.90;;;;;;5070302;28;20040;-69
2022/09/06 10:24:10;;;;;;;9.98;5.80;;;23.40;99.90;;;;;;5027582;28;20048;-69
2022/09/06 10:26:41;;;;;;;7.32;5.18;;;23.40;99.90;;;;;;5068394;28;20057;-69
2022/09/06 10:29:10;;;;;;;5.68;5.13;;;23.60;99.90;;;;;;5065669;28;20370;-69
2022/09/06 10:31:51;;;;;;;7.53;5.50;;;23.60;99.90;;;;;;5070739;28;20125;-69
2022/09/06 10:34:52;;;;;;;5.88;5.25;;;23.70;99.90;;;;;;5069801;28;20094;-69
2022/09/06 10:37:48;;;;;;;8.80;5.75;;;23.90;99.90;;;;;;5066496;28;20059;-71
2022/09/06 10:40:46;;;;;;;10.60;6.80;;;24.00;99.90;;;;;;5064322;28;20051;-69
2022/09/06 10:43:17;;;;;;;6.43;5.82;;;24.00;99.90;;;;;;5067030;28;20588;-70
2022/09/06 10:46:03;;;;;;;10.50;6.93;;;24.20;99.90;;;;;;5070352;28;20029;-69
2022/09/06 10:48:49;;;;;;;7.72;6.85;;;24.20;99.80;;;;;;5067890;28;20076;-70
2022/09/06 10:51:30;;;;;;;9.23;7.18;;;24.30;99.90;;;;;;5070099;28;20039;-69
2022/09/06 10:54:11;;;;;;;11.57;6.28;;;24.30;99.70;;;;;;5060189;28;20112;-70
2022/09/06 10:56:48;;;;;;;9.60;6.75;;;24.50;99.80;;;;;;5068041;28;20098;-73
2022/09/06 10:59:33;;;;;;;12.35;7.88;;;24.60;99.50;;;;;;5063703;28;20037;-71
2022/09/06 11:02:34;;;;;;;9.35;7.07;;;24.70;99.20;;;;;;5063182;28;20093;-71
2022/09/06 11:05:25;;;;;;;9.88;8.48;;;24.80;99.10;;;;;;5061370;28;20847;-72
2022/09/06 11:08:00;;;;;;;13.05;8.30;;;24.90;99.00;;;;;;5060336;28;20550;-69
2022/09/06 11:10:31;;;;;;;9.52;7.03;;;25.00;98.70;;;;;;5058538;28;20110;-69
2022/09/06 11:13:18;;;;;;;7.97;7.15;;;25.10;98.60;;;;;;5067768;28;20406;-69
2022/09/06 11:16:13;;;;;;;34.90;10.10;;;25.20;98.50;;;;;;5067463;28;20071;-72
2022/09/06 11:19:00;;;;;;;29.85;13.82;;;25.20;98.30;;;;;;5066798;28;20484;-71
2022/09/06 11:21:44;;;;;;;29.02;8.43;;;25.30;98.10;;;;;;5064425;28;20507;-71
2022/09/06 11:24:12;;;;;;;;;;;25.50;98.30;;;;;;5070465;28;20037;-69
2022/09/06 11:26:42;;;;;;;23.60;7.97;;;25.60;98.20;;;;;;5068390;28;20368;-71
2022/09/06 11:29:16;;;;;;;47.00;10.45;;;25.70;97.80;;;;;;5065310;28;20028;-72
2022/09/06 11:31:56;;;;;;;35.95;8.52;;;25.80;97.40;;;;;;5068360;28;20045;-73
2022/09/06 11:34:26;;;;;;;12.05;5.90;;;25.90;97.20;;;;;;5065902;28;20044;-69
2022/09/06 11:37:05;;;;;;;6.50;5.20;;;26.00;97.20;;;;;;5066380;28;20041;-72
2022/09/06 11:39:35;;;;;;;8.98;4.32;;;26.10;97.10;;;;;;5064910;28;20049;-73
2022/09/06 11:42:05;;;;;;;8.00;5.25;;;26.20;97.00;;;;;;5047307;28;20540;-72
2022/09/06 11:44:52;;;;;;;9.55;6.55;;;26.40;96.90;;;;;;5066840;28;20050;-70
2022/09/06 11:47:51;;;;;;;8.98;6.20;;;26.50;96.40;;;;;;5067604;28;20464;-71
2022/09/06 11:50:55;;;;;;;6.22;5.63;;;26.60;96.30;;;;;;5067031;28;20059;-69
2022/09/06 11:53:22;;;;;;;11.73;5.60;;;26.70;96.00;;;;;;5064814;28;20123;-72
2022/09/06 11:56:08;;;;;;;8.40;5.38;;;26.80;95.80;;;;;;5068874;28;20049;-70
2022/09/06 11:58:40;;;;;;;13.45;5.28;;;26.90;95.30;;;;;;5065650;28;20497;-72
2022/09/06 12:01:12;;;;;;;6.15;3.92;;;26.90;95.00;;;;;;5069602;28;20132;-70
2022/09/06 12:03:46;;;;;;;6.68;4.10;;;27.00;95.20;;;;;;5069093;28;20044;-70
2022/09/06 12:06:12;;;;;;;6.00;2.70;;;27.10;94.90;;;;;;5063030;28;20045;-73
2022/09/06 12:08:38;;;;;;;3.35;3.08;;;27.20;94.50;;;;;;5068745;28;20110;-71
2022/09/06 12:11:19;;;;;;;4.15;3.03;;;27.30;94.10;;;;;;5068051;28;20500;-70
2022/09/06 12:13:45;;;;;;;5.80;3.67;;;27.50;94.00;;;;;;5065035;28;20348;-73
2022/09/06 12:16:12;;;;;;;5.15;2.63;;;27.50;93.30;;;;;;5068324;28;20553;-72
2022/09/06 12:18:47;;;;;;;2.72;2.50;;;27.50;93.20;;;;;;5066781;28;20045;-70
2022/09/06 12:21:35;;;;;;;4.30;2.58;;;27.60;93.00;;;;;;5068150;28;20127;-73
2022/09/06 12:24:02;;;;;;;3.33;2.45;;;27.60;92.50;;;;;;5067368;28;20079;-70
2022/09/06 12:26:51;;;;;;;2.65;2.45;;;27.70;92.80;;;;;;5067921;28;20044;-75
2022/09/06 12:29:27;;;;;;;4.32;2.67;;;27.90;92.30;;;;;;5062202;28;20032;-74
2022/09/06 12:31:55;;;;;;;3.03;2.45;;;27.90;92.30;;;;;;5067331;28;20048;-72
2022/09/06 12:34:24;;;;;;;4.75;2.42;;;28.10;91.90;;;;;;5068462;28;20062;-74
2022/09/06 12:37:08;;;;;;;6.18;3.03;;;27.90;92.10;;;;;;5065869;28;20075;-71
2022/09/06 12:39:33;;;;;;;;;;;27.50;91.90;;;;;;5068611;28;20043;-74
2022/09/06 12:42:10;;;;;;;9.75;2.65;;;27.80;92.20;;;;;;5068450;28;19924;-73
2022/09/06 12:44:48;;;;;;;7.28;3.08;;;27.80;91.90;;;;;;5068409;28;20094;-74
2022/09/06 12:47:16;;;;;;;13.02;3.20;;;27.90;91.90;;;;;;5059489;28;20036;-73
2022/09/06 12:49:42;;;;;;;8.48;2.88;;;27.90;91.60;;;;;;5065801;28;20048;-75
2022/09/06 12:52:13;;;;;;;4.70;2.50;;;27.90;91.70;;;;;;5068919;28;20047;-73
2022/09/06 12:54:57;;;;;;;2.88;2.67;;;28.00;91.40;;;;;;5066209;28;20135;-75
2022/09/06 12:57:25;;;;;;;4.85;2.50;;;28.10;91.50;;;;;;5062487;28;20413;-72
2022/09/06 12:59:55;;;;;;;3.25;2.53;;;28.10;91.40;;;;;;5068021;28;20052;-71
2022/09/06 13:02:43;;;;;;;3.97;1.98;;;28.30;90.90;;;;;;5066098;28;20075;-73
2022/09/06 13:05:11;;;;;;;5.45;3.20;;;28.40;90.40;;;;;;5062593;28;20044;-71
2022/09/06 13:07:47;;;;;;;2.10;1.90;;;28.50;90.30;;;;;;5067649;28;20052;-73
2022/09/06 13:10:18;;;;;;;5.57;2.47;;;28.60;90.40;;;;;;5062524;28;20080;-74